sensor_id;sensor_type;location;lat;lon;timestamp;P1;durP1;ratioP1;P2;durP2;ratioP2
22314;SDS011;11325;55.686;37.566;2023-08-06T00:00:50;21.10;;;7.85;;
22314;SDS011;11325;55.686;37.566;2023-08-06T00:03:18;18.02;;;8.58;;
22314;SDS011;11325;55.686;37.566;2023-08-06T00:05:47;23.15;;;8.85;;
22314;SDS011;11325;55.686;37.566;2023-08-06T00:08:15;18.67;;;8.75;;
22314;SDS011;11325;55.686;37.566;2023-08-06T00:10:54;16.17;;;7.87;;
22314;SDS011;11325;55.686;37.566;2023-08-06T00:13:23;18.00;;;8.23;;
22314;SDS011;11325;55.686;37.566;2023-08-06T00:16:10;15.38;;;8.03;;
22314;SDS011;11325;55.686;37.566;2023-08-06T00:18:39;15.98;;;8.05;;
22314;SDS011;11325;55.686;37.566;2023-08-06T00:21:08;17.15;;;7.67;;
22314;SDS011;11325;55.686;37.566;2023-08-06T00:23:37;17.07;;;8.15;;
22314;SDS011;11325;55.686;37.566;2023-08-06T00:26:05;12.23;;;7.20;;
22314;SDS011;11325;55.686;37.566;2023-08-06T00:28:43;12.60;;;7.20;;
22314;SDS011;11325;55.686;37.566;2023-08-06T00:31:22;23.73;;;7.83;;
22314;SDS011;11325;55.686;37.566;2023-08-06T00:34:01;22.05;;;8.38;;
22314;SDS011;11325;55.686;37.566;2023-08-06T00:36:40;14.85;;;7.70;;
22314;SDS011;11325;55.686;37.566;2023-08-06T00:39:19;16.40;;;7.47;;
22314;SDS011;11325;55.686;37.566;2023-08-06T00:41:48;19.67;;;7.78;;
22314;SDS011;11325;55.686;37.566;2023-08-06T00:44:26;15.20;;;7.15;;
22314;SDS011;11325;55.686;37.566;2023-08-06T00:47:07;15.88;;;7.65;;
22314;SDS011;11325;55.686;37.566;2023-08-06T00:49:36;14.18;;;7.80;;
22314;SDS011;11325;55.686;37.566;2023-08-06T00:52:15;16.02;;;6.95;;
22314;SDS011;11325;55.686;37.566;2023-08-06T00:54:44;15.88;;;7.10;;
22314;SDS011;11325;55.686;37.566;2023-08-06T00:57:13;12.45;;;6.28;;
22314;SDS011;11325;55.686;37.566;2023-08-06T00:59:42;11.08;;;7.12;;
22314;SDS011;11325;55.686;37.566;2023-08-06T01:02:20;16.97;;;7.37;;
22314;SDS011;11325;55.686;37.566;2023-08-06T01:04:49;13.32;;;6.80;;
22314;SDS011;11325;55.686;37.566;2023-08-06T01:09:54;14.33;;;7.33;;
22314;SDS011;11325;55.686;37.566;2023-08-06T01:12:34;12.80;;;7.40;;
22314;SDS011;11325;55.686;37.566;2023-08-06T01:15:12;15.30;;;7.03;;
22314;SDS011;11325;55.686;37.566;2023-08-06T01:17:51;12.00;;;6.70;;
22314;SDS011;11325;55.686;37.566;2023-08-06T01:20:30;17.98;;;7.15;;
22314;SDS011;11325;55.686;37.566;2023-08-06T01:22:59;19.40;;;7.17;;
22314;SDS011;11325;55.686;37.566;2023-08-06T01:31:02;17.87;;;7.15;;
22314;SDS011;11325;55.686;37.566;2023-08-06T01:33:30;9.13;;;7.08;;
22314;SDS011;11325;55.686;37.566;2023-08-06T01:36:00;14.50;;;7.00;;
22314;SDS011;11325;55.686;37.566;2023-08-06T01:38:39;15.05;;;6.67;;
22314;SDS011;11325;55.686;37.566;2023-08-06T01:41:08;13.48;;;7.70;;
22314;SDS011;11325;55.686;37.566;2023-08-06T01:43:46;13.48;;;7.72;;
22314;SDS011;11325;55.686;37.566;2023-08-06T01:46:25;14.35;;;6.90;;
22314;SDS011;11325;55.686;37.566;2023-08-06T01:48:54;15.53;;;7.37;;
22314;SDS011;11325;55.686;37.566;2023-08-06T01:51:23;13.55;;;7.33;;
22314;SDS011;11325;55.686;37.566;2023-08-06T01:54:01;15.58;;;6.47;;
22314;SDS011;11325;55.686;37.566;2023-08-06T01:56:30;17.98;;;6.67;;
22314;SDS011;11325;55.686;37.566;2023-08-06T01:59:08;17.95;;;7.15;;
22314;SDS011;11325;55.686;37.566;2023-08-06T02:01:37;15.20;;;7.03;;
22314;SDS011;11325;55.686;37.566;2023-08-06T02:04:16;12.63;;;7.05;;
22314;SDS011;11325;55.686;37.566;2023-08-06T02:07:04;18.25;;;6.55;;
22314;SDS011;11325;55.686;37.566;2023-08-06T02:09:42;16.52;;;6.60;;
22314;SDS011;11325;55.686;37.566;2023-08-06T02:12:11;13.05;;;6.72;;
22314;SDS011;11325;55.686;37.566;2023-08-06T02:14:49;19.87;;;7.12;;
22314;SDS011;11325;55.686;37.566;2023-08-06T02:17:18;15.70;;;7.33;;
22314;SDS011;11325;55.686;37.566;2023-08-06T02:19:46;20.23;;;7.28;;
22314;SDS011;11325;55.686;37.566;2023-08-06T02:22:26;20.52;;;7.50;;
22314;SDS011;11325;55.686;37.566;2023-08-06T02:25:06;11.03;;;6.72;;
22314;SDS011;11325;55.686;37.566;2023-08-06T02:27:35;14.38;;;6.83;;
22314;SDS011;11325;55.686;37.566;2023-08-06T02:30:13;12.47;;;6.55;;
22314;SDS011;11325;55.686;37.566;2023-08-06T02:32:51;20.10;;;6.92;;
22314;SDS011;11325;55.686;37.566;2023-08-06T02:35:30;11.25;;;6.33;;
22314;SDS011;11325;55.686;37.566;2023-08-06T02:37:59;15.70;;;6.97;;
22314;SDS011;11325;55.686;37.566;2023-08-06T02:40:42;15.08;;;7.60;;
22314;SDS011;11325;55.686;37.566;2023-08-06T02:43:07;15.60;;;7.28;;
22314;SDS011;11325;55.686;37.566;2023-08-06T02:45:36;18.73;;;7.30;;
22314;SDS011;11325;55.686;37.566;2023-08-06T02:48:04;12.75;;;6.92;;
22314;SDS011;11325;55.686;37.566;2023-08-06T02:50:43;21.20;;;6.97;;
22314;SDS011;11325;55.686;37.566;2023-08-06T02:53:12;25.55;;;7.08;;
22314;SDS011;11325;55.686;37.566;2023-08-06T02:55:52;12.93;;;6.33;;
22314;SDS011;11325;55.686;37.566;2023-08-06T02:58:21;18.70;;;7.30;;
22314;SDS011;11325;55.686;37.566;2023-08-06T03:01:03;23.67;;;7.10;;
22314;SDS011;11325;55.686;37.566;2023-08-06T03:03:42;15.85;;;6.78;;
22314;SDS011;11325;55.686;37.566;2023-08-06T03:06:11;15.83;;;7.00;;
22314;SDS011;11325;55.686;37.566;2023-08-06T03:08:49;17.37;;;6.87;;
22314;SDS011;11325;55.686;37.566;2023-08-06T03:11:29;14.05;;;6.92;;
22314;SDS011;11325;55.686;37.566;2023-08-06T03:14:09;22.93;;;7.08;;
22314;SDS011;11325;55.686;37.566;2023-08-06T03:16:37;15.15;;;8.18;;
22314;SDS011;11325;55.686;37.566;2023-08-06T03:19:06;13.40;;;7.42;;
22314;SDS011;11325;55.686;37.566;2023-08-06T03:21:44;20.97;;;7.12;;
22314;SDS011;11325;55.686;37.566;2023-08-06T03:24:13;13.48;;;7.53;;
22314;SDS011;11325;55.686;37.566;2023-08-06T03:26:42;15.98;;;7.12;;
22314;SDS011;11325;55.686;37.566;2023-08-06T03:29:21;21.85;;;7.15;;
22314;SDS011;11325;55.686;37.566;2023-08-06T03:32:00;13.70;;;7.67;;
22314;SDS011;11325;55.686;37.566;2023-08-06T03:34:29;19.60;;;8.70;;
22314;SDS011;11325;55.686;37.566;2023-08-06T03:36:58;19.90;;;8.75;;
22314;SDS011;11325;55.686;37.566;2023-08-06T03:39:26;17.90;;;8.75;;
22314;SDS011;11325;55.686;37.566;2023-08-06T03:41:55;20.12;;;9.30;;
22314;SDS011;11325;55.686;37.566;2023-08-06T03:44:34;18.87;;;8.28;;
22314;SDS011;11325;55.686;37.566;2023-08-06T03:47:12;15.93;;;8.80;;
22314;SDS011;11325;55.686;37.566;2023-08-06T03:49:41;17.70;;;8.73;;
22314;SDS011;11325;55.686;37.566;2023-08-06T03:52:11;33.92;;;9.88;;
22314;SDS011;11325;55.686;37.566;2023-08-06T03:54:50;19.30;;;8.45;;
22314;SDS011;11325;55.686;37.566;2023-08-06T03:57:18;21.02;;;8.83;;
22314;SDS011;11325;55.686;37.566;2023-08-06T03:59:58;22.37;;;8.70;;
22314;SDS011;11325;55.686;37.566;2023-08-06T04:02:36;20.17;;;8.50;;
22314;SDS011;11325;55.686;37.566;2023-08-06T04:05:05;18.52;;;8.45;;
22314;SDS011;11325;55.686;37.566;2023-08-06T04:07:43;19.80;;;7.42;;
22314;SDS011;11325;55.686;37.566;2023-08-06T04:10:12;18.25;;;8.38;;
22314;SDS011;11325;55.686;37.566;2023-08-06T04:12:41;14.43;;;7.62;;
22314;SDS011;11325;55.686;37.566;2023-08-06T04:15:09;21.15;;;7.87;;
22314;SDS011;11325;55.686;37.566;2023-08-06T04:17:38;19.45;;;8.00;;
22314;SDS011;11325;55.686;37.566;2023-08-06T04:20:07;23.47;;;7.78;;
22314;SDS011;11325;55.686;37.566;2023-08-06T04:22:35;17.95;;;7.95;;
22314;SDS011;11325;55.686;37.566;2023-08-06T04:25:04;14.55;;;6.97;;
22314;SDS011;11325;55.686;37.566;2023-08-06T04:27:44;20.45;;;8.18;;
22314;SDS011;11325;55.686;37.566;2023-08-06T04:30:12;16.65;;;7.55;;
22314;SDS011;11325;55.686;37.566;2023-08-06T04:32:41;17.32;;;7.62;;
22314;SDS011;11325;55.686;37.566;2023-08-06T04:35:09;21.42;;;8.18;;
22314;SDS011;11325;55.686;37.566;2023-08-06T04:37:48;15.32;;;7.40;;
22314;SDS011;11325;55.686;37.566;2023-08-06T04:40:17;20.90;;;8.18;;
22314;SDS011;11325;55.686;37.566;2023-08-06T04:42:56;12.65;;;7.28;;
22314;SDS011;11325;55.686;37.566;2023-08-06T04:45:36;18.42;;;7.35;;
22314;SDS011;11325;55.686;37.566;2023-08-06T04:48:04;16.37;;;7.37;;
22314;SDS011;11325;55.686;37.566;2023-08-06T04:50:33;18.32;;;6.87;;
22314;SDS011;11325;55.686;37.566;2023-08-06T04:53:11;20.40;;;7.35;;
22314;SDS011;11325;55.686;37.566;2023-08-06T04:55:50;23.22;;;6.85;;
22314;SDS011;11325;55.686;37.566;2023-08-06T04:58:29;19.73;;;7.70;;
22314;SDS011;11325;55.686;37.566;2023-08-06T05:01:08;15.45;;;7.20;;
22314;SDS011;11325;55.686;37.566;2023-08-06T05:03:36;16.48;;;7.25;;
22314;SDS011;11325;55.686;37.566;2023-08-06T05:06:05;18.02;;;7.45;;
22314;SDS011;11325;55.686;37.566;2023-08-06T05:08:33;17.95;;;7.42;;
22314;SDS011;11325;55.686;37.566;2023-08-06T05:11:02;20.23;;;6.92;;
22314;SDS011;11325;55.686;37.566;2023-08-06T05:13:31;23.25;;;7.85;;
22314;SDS011;11325;55.686;37.566;2023-08-06T05:15:59;11.90;;;6.25;;
22314;SDS011;11325;55.686;37.566;2023-08-06T05:18:39;17.12;;;6.17;;
22314;SDS011;11325;55.686;37.566;2023-08-06T05:21:18;19.75;;;7.12;;
22314;SDS011;11325;55.686;37.566;2023-08-06T05:23:47;16.82;;;5.97;;
22314;SDS011;11325;55.686;37.566;2023-08-06T05:26:16;12.55;;;6.17;;
22314;SDS011;11325;55.686;37.566;2023-08-06T05:28:46;11.60;;;6.47;;
22314;SDS011;11325;55.686;37.566;2023-08-06T05:31:25;17.27;;;6.58;;
22314;SDS011;11325;55.686;37.566;2023-08-06T05:34:04;19.73;;;6.40;;
22314;SDS011;11325;55.686;37.566;2023-08-06T05:36:43;24.32;;;6.20;;
22314;SDS011;11325;55.686;37.566;2023-08-06T05:39:11;17.52;;;6.65;;
22314;SDS011;11325;55.686;37.566;2023-08-06T05:41:49;13.83;;;6.75;;
22314;SDS011;11325;55.686;37.566;2023-08-06T05:44:20;11.85;;;6.60;;
22314;SDS011;11325;55.686;37.566;2023-08-06T05:46:48;13.53;;;6.85;;
22314;SDS011;11325;55.686;37.566;2023-08-06T05:49:17;16.65;;;6.28;;
22314;SDS011;11325;55.686;37.566;2023-08-06T05:51:46;16.48;;;7.22;;
22314;SDS011;11325;55.686;37.566;2023-08-06T05:54:14;14.38;;;6.67;;
22314;SDS011;11325;55.686;37.566;2023-08-06T05:56:43;18.30;;;5.95;;
22314;SDS011;11325;55.686;37.566;2023-08-06T05:59:21;18.80;;;6.75;;
22314;SDS011;11325;55.686;37.566;2023-08-06T06:01:50;10.72;;;6.20;;
22314;SDS011;11325;55.686;37.566;2023-08-06T06:04:29;19.50;;;6.53;;
22314;SDS011;11325;55.686;37.566;2023-08-06T06:06:58;15.18;;;6.05;;
22314;SDS011;11325;55.686;37.566;2023-08-06T06:09:26;14.07;;;6.50;;
22314;SDS011;11325;55.686;37.566;2023-08-06T06:11:55;19.55;;;7.00;;
22314;SDS011;11325;55.686;37.566;2023-08-06T06:14:24;15.25;;;6.78;;
22314;SDS011;11325;55.686;37.566;2023-08-06T06:16:52;15.03;;;6.97;;
22314;SDS011;11325;55.686;37.566;2023-08-06T06:19:31;14.85;;;5.30;;
22314;SDS011;11325;55.686;37.566;2023-08-06T06:22:11;11.05;;;5.42;;
22314;SDS011;11325;55.686;37.566;2023-08-06T06:24:40;9.03;;;5.50;;
22314;SDS011;11325;55.686;37.566;2023-08-06T06:27:18;15.05;;;5.37;;
22314;SDS011;11325;55.686;37.566;2023-08-06T06:29:47;9.80;;;5.42;;
22314;SDS011;11325;55.686;37.566;2023-08-06T06:32:25;10.72;;;5.53;;
22314;SDS011;11325;55.686;37.566;2023-08-06T06:34:54;13.40;;;5.87;;
22314;SDS011;11325;55.686;37.566;2023-08-06T06:37:23;13.40;;;5.90;;
22314;SDS011;11325;55.686;37.566;2023-08-06T06:39:51;12.60;;;5.70;;
22314;SDS011;11325;55.686;37.566;2023-08-06T06:42:20;15.53;;;4.75;;
22314;SDS011;11325;55.686;37.566;2023-08-06T06:44:48;15.72;;;5.65;;
22314;SDS011;11325;55.686;37.566;2023-08-06T06:47:27;13.28;;;5.28;;
22314;SDS011;11325;55.686;37.566;2023-08-06T06:50:06;12.25;;;5.72;;
22314;SDS011;11325;55.686;37.566;2023-08-06T06:52:46;16.42;;;7.15;;
22314;SDS011;11325;55.686;37.566;2023-08-06T06:55:24;7.95;;;5.55;;
22314;SDS011;11325;55.686;37.566;2023-08-06T06:57:53;18.40;;;5.30;;
22314;SDS011;11325;55.686;37.566;2023-08-06T07:00:22;10.65;;;5.10;;
22314;SDS011;11325;55.686;37.566;2023-08-06T07:02:50;14.60;;;6.17;;
22314;SDS011;11325;55.686;37.566;2023-08-06T07:05:20;12.30;;;5.97;;
22314;SDS011;11325;55.686;37.566;2023-08-06T07:07:48;13.15;;;6.42;;
22314;SDS011;11325;55.686;37.566;2023-08-06T07:10:26;12.60;;;6.05;;
22314;SDS011;11325;55.686;37.566;2023-08-06T07:12:55;11.65;;;6.33;;
22314;SDS011;11325;55.686;37.566;2023-08-06T07:15:24;12.93;;;6.53;;
22314;SDS011;11325;55.686;37.566;2023-08-06T07:17:52;22.00;;;6.30;;
22314;SDS011;11325;55.686;37.566;2023-08-06T07:20:30;13.35;;;6.47;;
22314;SDS011;11325;55.686;37.566;2023-08-06T07:23:10;13.80;;;7.05;;
22314;SDS011;11325;55.686;37.566;2023-08-06T07:25:50;19.73;;;7.78;;
22314;SDS011;11325;55.686;37.566;2023-08-06T07:28:29;13.50;;;6.35;;
22314;SDS011;11325;55.686;37.566;2023-08-06T07:30:57;16.32;;;6.12;;
22314;SDS011;11325;55.686;37.566;2023-08-06T07:33:36;11.45;;;6.50;;
22314;SDS011;11325;55.686;37.566;2023-08-06T07:36:11;12.90;;;6.90;;
22314;SDS011;11325;55.686;37.566;2023-08-06T07:38:40;13.75;;;6.92;;
22314;SDS011;11325;55.686;37.566;2023-08-06T07:41:19;13.85;;;6.50;;
22314;SDS011;11325;55.686;37.566;2023-08-06T07:43:48;10.72;;;6.62;;
22314;SDS011;11325;55.686;37.566;2023-08-06T07:46:17;14.45;;;6.28;;
22314;SDS011;11325;55.686;37.566;2023-08-06T07:48:56;15.85;;;5.60;;
22314;SDS011;11325;55.686;37.566;2023-08-06T07:51:24;11.80;;;6.10;;
22314;SDS011;11325;55.686;37.566;2023-08-06T07:53:53;20.75;;;5.78;;
22314;SDS011;11325;55.686;37.566;2023-08-06T07:56:21;12.28;;;5.47;;
22314;SDS011;11325;55.686;37.566;2023-08-06T07:59:01;13.75;;;5.78;;
22314;SDS011;11325;55.686;37.566;2023-08-06T08:01:29;13.00;;;6.60;;
22314;SDS011;11325;55.686;37.566;2023-08-06T08:03:58;13.30;;;6.15;;
22314;SDS011;11325;55.686;37.566;2023-08-06T08:06:36;13.93;;;6.10;;
22314;SDS011;11325;55.686;37.566;2023-08-06T08:09:14;15.08;;;5.30;;
22314;SDS011;11325;55.686;37.566;2023-08-06T08:11:43;9.70;;;5.97;;
22314;SDS011;11325;55.686;37.566;2023-08-06T08:14:12;13.98;;;5.72;;
22314;SDS011;11325;55.686;37.566;2023-08-06T08:16:40;10.40;;;5.60;;
22314;SDS011;11325;55.686;37.566;2023-08-06T08:19:20;14.68;;;5.83;;
22314;SDS011;11325;55.686;37.566;2023-08-06T08:21:48;9.93;;;5.33;;
22314;SDS011;11325;55.686;37.566;2023-08-06T08:24:17;11.00;;;5.55;;
22314;SDS011;11325;55.686;37.566;2023-08-06T08:26:58;7.58;;;4.92;;
22314;SDS011;11325;55.686;37.566;2023-08-06T08:29:26;9.63;;;5.00;;
22314;SDS011;11325;55.686;37.566;2023-08-06T08:31:55;18.32;;;5.60;;
22314;SDS011;11325;55.686;37.566;2023-08-06T08:34:23;6.97;;;4.87;;
22314;SDS011;11325;55.686;37.566;2023-08-06T08:36:52;7.47;;;5.10;;
22314;SDS011;11325;55.686;37.566;2023-08-06T08:39:20;8.75;;;5.03;;
22314;SDS011;11325;55.686;37.566;2023-08-06T08:41:58;8.90;;;5.97;;
22314;SDS011;11325;55.686;37.566;2023-08-06T08:44:28;6.33;;;5.45;;
22314;SDS011;11325;55.686;37.566;2023-08-06T08:47:10;11.95;;;5.20;;
22314;SDS011;11325;55.686;37.566;2023-08-06T08:49:48;6.10;;;4.83;;
22314;SDS011;11325;55.686;37.566;2023-08-06T08:52:17;12.80;;;5.17;;
22314;SDS011;11325;55.686;37.566;2023-08-06T08:54:46;8.40;;;5.53;;
22314;SDS011;11325;55.686;37.566;2023-08-06T08:57:28;12.25;;;4.83;;
22314;SDS011;11325;55.686;37.566;2023-08-06T08:59:56;13.55;;;5.37;;
22314;SDS011;11325;55.686;37.566;2023-08-06T09:02:34;15.83;;;5.50;;
22314;SDS011;11325;55.686;37.566;2023-08-06T09:05:15;7.28;;;5.28;;
22314;SDS011;11325;55.686;37.566;2023-08-06T09:07:48;8.45;;;5.00;;
22314;SDS011;11325;55.686;37.566;2023-08-06T09:10:16;12.18;;;4.97;;
22314;SDS011;11325;55.686;37.566;2023-08-06T09:12:57;7.00;;;4.70;;
22314;SDS011;11325;55.686;37.566;2023-08-06T09:15:26;13.75;;;4.60;;
22314;SDS011;11325;55.686;37.566;2023-08-06T09:17:55;8.80;;;4.92;;
22314;SDS011;11325;55.686;37.566;2023-08-06T09:20:34;9.80;;;4.65;;
22314;SDS011;11325;55.686;37.566;2023-08-06T09:25:43;10.43;;;5.10;;
22314;SDS011;11325;55.686;37.566;2023-08-06T09:28:12;14.75;;;5.20;;
22314;SDS011;11325;55.686;37.566;2023-08-06T09:30:52;9.63;;;4.70;;
22314;SDS011;11325;55.686;37.566;2023-08-06T09:33:22;9.33;;;4.72;;
22314;SDS011;11325;55.686;37.566;2023-08-06T09:38:44;6.90;;;4.83;;
22314;SDS011;11325;55.686;37.566;2023-08-06T09:41:15;6.78;;;5.22;;
22314;SDS011;11325;55.686;37.566;2023-08-06T09:43:43;6.95;;;4.47;;
22314;SDS011;11325;55.686;37.566;2023-08-06T09:46:21;9.78;;;5.00;;
22314;SDS011;11325;55.686;37.566;2023-08-06T09:48:50;8.33;;;4.85;;
22314;SDS011;11325;55.686;37.566;2023-08-06T09:51:29;6.72;;;5.05;;
22314;SDS011;11325;55.686;37.566;2023-08-06T09:53:58;18.30;;;5.72;;
22314;SDS011;11325;55.686;37.566;2023-08-06T09:56:27;11.68;;;5.47;;
22314;SDS011;11325;55.686;37.566;2023-08-06T09:59:06;9.05;;;5.50;;
22314;SDS011;11325;55.686;37.566;2023-08-06T10:01:46;10.68;;;5.33;;
22314;SDS011;11325;55.686;37.566;2023-08-06T10:04:15;15.18;;;5.47;;
22314;SDS011;11325;55.686;37.566;2023-08-06T10:06:47;9.28;;;5.30;;
22314;SDS011;11325;55.686;37.566;2023-08-06T10:09:25;9.43;;;5.28;;
22314;SDS011;11325;55.686;37.566;2023-08-06T10:12:04;7.55;;;4.78;;
22314;SDS011;11325;55.686;37.566;2023-08-06T10:14:44;8.20;;;5.28;;
22314;SDS011;11325;55.686;37.566;2023-08-06T10:17:23;6.08;;;4.97;;
22314;SDS011;11325;55.686;37.566;2023-08-06T10:20:04;18.52;;;5.65;;
22314;SDS011;11325;55.686;37.566;2023-08-06T10:22:44;10.68;;;5.37;;
22314;SDS011;11325;55.686;37.566;2023-08-06T10:25:16;14.85;;;5.55;;
22314;SDS011;11325;55.686;37.566;2023-08-06T10:27:58;9.90;;;6.30;;
22314;SDS011;11325;55.686;37.566;2023-08-06T10:32:58;12.53;;;5.22;;
22314;SDS011;11325;55.686;37.566;2023-08-06T10:35:46;7.95;;;4.85;;
22314;SDS011;11325;55.686;37.566;2023-08-06T10:38:19;9.78;;;5.35;;
22314;SDS011;11325;55.686;37.566;2023-08-06T10:41:03;13.40;;;5.65;;
22314;SDS011;11325;55.686;37.566;2023-08-06T10:43:42;14.25;;;5.60;;
22314;SDS011;11325;55.686;37.566;2023-08-06T10:49:03;19.35;;;5.78;;
22314;SDS011;11325;55.686;37.566;2023-08-06T10:51:41;10.30;;;5.67;;
22314;SDS011;11325;55.686;37.566;2023-08-06T10:54:10;8.08;;;5.30;;
22314;SDS011;11325;55.686;37.566;2023-08-06T10:56:40;11.73;;;5.67;;
22314;SDS011;11325;55.686;37.566;2023-08-06T10:59:09;17.65;;;5.30;;
22314;SDS011;11325;55.686;37.566;2023-08-06T11:01:48;8.88;;;5.58;;
22314;SDS011;11325;55.686;37.566;2023-08-06T11:04:16;11.43;;;5.28;;
22314;SDS011;11325;55.686;37.566;2023-08-06T11:06:45;7.12;;;5.40;;
22314;SDS011;11325;55.686;37.566;2023-08-06T11:09:15;6.80;;;5.37;;
22314;SDS011;11325;55.686;37.566;2023-08-06T11:11:54;12.90;;;5.33;;
22314;SDS011;11325;55.686;37.566;2023-08-06T11:14:23;12.43;;;5.30;;
22314;SDS011;11325;55.686;37.566;2023-08-06T11:17:01;7.67;;;5.60;;
22314;SDS011;11325;55.686;37.566;2023-08-06T11:19:40;7.67;;;5.80;;
22314;SDS011;11325;55.686;37.566;2023-08-06T11:22:09;13.20;;;5.90;;
22314;SDS011;11325;55.686;37.566;2023-08-06T11:24:38;10.93;;;5.60;;
22314;SDS011;11325;55.686;37.566;2023-08-06T11:27:15;8.10;;;5.22;;
22314;SDS011;11325;55.686;37.566;2023-08-06T11:29:54;6.83;;;5.53;;
22314;SDS011;11325;55.686;37.566;2023-08-06T11:32:43;12.75;;;5.47;;
22314;SDS011;11325;55.686;37.566;2023-08-06T11:35:09;13.38;;;5.58;;
22314;SDS011;11325;55.686;37.566;2023-08-06T11:37:34;10.05;;;5.92;;
22314;SDS011;11325;55.686;37.566;2023-08-06T11:40:06;15.45;;;6.12;;
22314;SDS011;11325;55.686;37.566;2023-08-06T11:42:43;9.23;;;5.58;;
22314;SDS011;11325;55.686;37.566;2023-08-06T11:45:11;7.75;;;5.45;;
22314;SDS011;11325;55.686;37.566;2023-08-06T11:47:40;7.25;;;4.85;;
22314;SDS011;11325;55.686;37.566;2023-08-06T11:50:08;10.48;;;5.60;;
22314;SDS011;11325;55.686;37.566;2023-08-06T11:52:38;9.18;;;4.90;;
22314;SDS011;11325;55.686;37.566;2023-08-06T11:55:08;7.50;;;5.42;;
22314;SDS011;11325;55.686;37.566;2023-08-06T11:57:52;10.03;;;5.20;;
22314;SDS011;11325;55.686;37.566;2023-08-06T12:00:22;8.40;;;5.12;;
22314;SDS011;11325;55.686;37.566;2023-08-06T12:02:51;13.32;;;5.40;;
22314;SDS011;11325;55.686;37.566;2023-08-06T12:05:31;8.33;;;5.40;;
22314;SDS011;11325;55.686;37.566;2023-08-06T12:08:11;8.48;;;5.55;;
22314;SDS011;11325;55.686;37.566;2023-08-06T12:10:49;7.83;;;5.45;;
22314;SDS011;11325;55.686;37.566;2023-08-06T12:13:29;9.65;;;5.30;;
22314;SDS011;11325;55.686;37.566;2023-08-06T12:15:57;9.70;;;5.78;;
22314;SDS011;11325;55.686;37.566;2023-08-06T12:18:26;8.83;;;5.60;;
22314;SDS011;11325;55.686;37.566;2023-08-06T12:21:05;10.18;;;5.53;;
22314;SDS011;11325;55.686;37.566;2023-08-06T12:23:34;8.73;;;5.25;;
22314;SDS011;11325;55.686;37.566;2023-08-06T12:26:12;8.03;;;5.40;;
22314;SDS011;11325;55.686;37.566;2023-08-06T12:28:41;8.13;;;5.00;;
22314;SDS011;11325;55.686;37.566;2023-08-06T12:31:09;7.60;;;5.33;;
22314;SDS011;11325;55.686;37.566;2023-08-06T12:33:38;7.85;;;5.60;;
22314;SDS011;11325;55.686;37.566;2023-08-06T12:36:06;8.65;;;5.80;;
22314;SDS011;11325;55.686;37.566;2023-08-06T12:38:46;10.32;;;5.35;;
22314;SDS011;11325;55.686;37.566;2023-08-06T12:41:24;11.12;;;5.12;;
22314;SDS011;11325;55.686;37.566;2023-08-06T12:43:53;13.60;;;5.17;;
22314;SDS011;11325;55.686;37.566;2023-08-06T12:46:32;8.80;;;5.17;;
22314;SDS011;11325;55.686;37.566;2023-08-06T12:49:11;9.40;;;5.42;;
22314;SDS011;11325;55.686;37.566;2023-08-06T12:51:50;10.30;;;5.72;;
22314;SDS011;11325;55.686;37.566;2023-08-06T12:54:21;10.65;;;4.97;;
22314;SDS011;11325;55.686;37.566;2023-08-06T12:56:59;12.98;;;5.75;;
22314;SDS011;11325;55.686;37.566;2023-08-06T12:59:28;13.80;;;5.00;;
22314;SDS011;11325;55.686;37.566;2023-08-06T13:01:56;11.08;;;5.50;;
22314;SDS011;11325;55.686;37.566;2023-08-06T13:04:25;11.20;;;5.75;;
22314;SDS011;11325;55.686;37.566;2023-08-06T13:06:54;12.13;;;5.08;;
22314;SDS011;11325;55.686;37.566;2023-08-06T13:09:33;11.48;;;5.58;;
22314;SDS011;11325;55.686;37.566;2023-08-06T13:12:01;8.90;;;5.35;;
22314;SDS011;11325;55.686;37.566;2023-08-06T13:14:42;8.48;;;5.78;;
22314;SDS011;11325;55.686;37.566;2023-08-06T13:17:10;7.25;;;5.50;;
22314;SDS011;11325;55.686;37.566;2023-08-06T13:19:39;12.68;;;5.80;;
22314;SDS011;11325;55.686;37.566;2023-08-06T13:22:18;10.50;;;5.85;;
22314;SDS011;11325;55.686;37.566;2023-08-06T13:24:47;10.10;;;5.25;;
22314;SDS011;11325;55.686;37.566;2023-08-06T13:27:26;12.03;;;5.37;;
22314;SDS011;11325;55.686;37.566;2023-08-06T13:29:54;10.45;;;5.50;;
22314;SDS011;11325;55.686;37.566;2023-08-06T13:32:33;7.15;;;5.30;;
22314;SDS011;11325;55.686;37.566;2023-08-06T13:35:04;16.85;;;5.47;;
22314;SDS011;11325;55.686;37.566;2023-08-06T13:37:43;11.10;;;5.37;;
22314;SDS011;11325;55.686;37.566;2023-08-06T13:40:21;11.70;;;5.50;;
22314;SDS011;11325;55.686;37.566;2023-08-06T13:42:50;7.08;;;5.22;;
22314;SDS011;11325;55.686;37.566;2023-08-06T13:45:29;12.82;;;5.22;;
22314;SDS011;11325;55.686;37.566;2023-08-06T13:47:59;10.13;;;5.20;;
22314;SDS011;11325;55.686;37.566;2023-08-06T13:50:27;7.50;;;4.95;;
22314;SDS011;11325;55.686;37.566;2023-08-06T13:53:06;12.70;;;5.53;;
22314;SDS011;11325;55.686;37.566;2023-08-06T13:55:35;12.00;;;5.72;;
22314;SDS011;11325;55.686;37.566;2023-08-06T13:58:14;7.60;;;5.87;;
22314;SDS011;11325;55.686;37.566;2023-08-06T14:00:42;11.20;;;5.55;;
22314;SDS011;11325;55.686;37.566;2023-08-06T14:03:11;9.28;;;5.47;;
22314;SDS011;11325;55.686;37.566;2023-08-06T14:05:39;13.60;;;5.53;;
22314;SDS011;11325;55.686;37.566;2023-08-06T14:08:08;7.72;;;5.35;;
22314;SDS011;11325;55.686;37.566;2023-08-06T14:10:37;7.87;;;6.28;;
22314;SDS011;11325;55.686;37.566;2023-08-06T14:13:05;8.58;;;5.67;;
22314;SDS011;11325;55.686;37.566;2023-08-06T14:15:34;6.67;;;5.35;;
22314;SDS011;11325;55.686;37.566;2023-08-06T14:18:13;10.40;;;6.10;;
22314;SDS011;11325;55.686;37.566;2023-08-06T14:20:58;9.88;;;5.85;;
22314;SDS011;11325;55.686;37.566;2023-08-06T14:23:37;11.25;;;5.50;;
22314;SDS011;11325;55.686;37.566;2023-08-06T14:26:16;31.82;;;6.75;;
22314;SDS011;11325;55.686;37.566;2023-08-06T14:28:55;8.98;;;6.10;;
22314;SDS011;11325;55.686;37.566;2023-08-06T14:31:33;8.83;;;6.00;;
22314;SDS011;11325;55.686;37.566;2023-08-06T14:34:12;13.00;;;5.97;;
22314;SDS011;11325;55.686;37.566;2023-08-06T14:36:51;19.60;;;5.85;;
22314;SDS011;11325;55.686;37.566;2023-08-06T14:39:19;11.83;;;5.97;;
22314;SDS011;11325;55.686;37.566;2023-08-06T14:41:58;11.88;;;6.10;;
22314;SDS011;11325;55.686;37.566;2023-08-06T14:44:27;8.45;;;6.00;;
22314;SDS011;11325;55.686;37.566;2023-08-06T14:47:06;17.45;;;5.78;;
22314;SDS011;11325;55.686;37.566;2023-08-06T14:49:35;14.38;;;6.00;;
22314;SDS011;11325;55.686;37.566;2023-08-06T14:52:03;7.42;;;5.50;;
22314;SDS011;11325;55.686;37.566;2023-08-06T14:54:32;8.48;;;5.78;;
22314;SDS011;11325;55.686;37.566;2023-08-06T14:57:01;10.70;;;5.75;;
22314;SDS011;11325;55.686;37.566;2023-08-06T14:59:40;10.82;;;6.00;;
22314;SDS011;11325;55.686;37.566;2023-08-06T15:02:08;15.93;;;5.70;;
22314;SDS011;11325;55.686;37.566;2023-08-06T15:04:37;13.18;;;6.03;;
22314;SDS011;11325;55.686;37.566;2023-08-06T15:07:16;10.08;;;5.35;;
22314;SDS011;11325;55.686;37.566;2023-08-06T15:09:45;12.70;;;5.80;;
22314;SDS011;11325;55.686;37.566;2023-08-06T15:12:13;10.80;;;6.37;;
22314;SDS011;11325;55.686;37.566;2023-08-06T15:14:53;18.12;;;6.08;;
22314;SDS011;11325;55.686;37.566;2023-08-06T15:17:32;11.75;;;6.17;;